Portada
METAR-TAF:

METAR-TAF

Aeropuertos :

Lamoni Municipal Airport

Lamoni, Iowa, Estados Unidos

latitud: 40-37-50N, longitud: 093-54-03W, altitud: 344 m

Observación

El informe se hizo hace 1 hora y 1 minutos, a las 04:53 UTC
Viento 3 kt del oeste-noroeste
Temperatura 14°C
Humedad 94%
Presión 1024 hPa
Visibilidad: 16.1 km
Nubes dispersas a una altura de 10000 ft

METAR: KLWD 310453Z AUTO 30003KT 10SM SCT100 14/13 A3025 RMK AO2 SLP242 T01440133

Hora: 00:54 (05:54 UTC)


TAF: falta

Observaciones y pronósticos meteorológicos de más de 4000 aeropuertos (mensajes METAR y TAF).

Los puntos amarillos y rojos representan las estaciones disponibles.

Ponga el ratón en el punto deseado para ver el nombre de la estación.

Haga clic para ver las observaciones y los pronósticos meteorológicos.

Para cambiar el mapa : haga clic en los botones verdes con una cruz de color negro para hacer un zoom, en el botón verde con un guión para alejar o en las flechas verdes para mapas adyacentes.


METAR-TAF: